createdAt,value
2018-10-11T00:00:51.345Z,99016.11
2018-10-11T00:03:21.244Z,99012.13
2018-10-11T00:05:50.117Z,99020.33
2018-10-11T00:08:18.692Z,99021.75
2018-10-11T00:10:51.756Z,99013.42
2018-10-11T00:13:21.912Z,99019.80
2018-10-11T00:15:52.691Z,99022.23
2018-10-11T00:18:22.605Z,99034.79
2018-10-11T00:20:52.093Z,99029.34
2018-10-11T00:23:22.545Z,99029.67
2018-10-11T00:25:51.989Z,99025.77
2018-10-11T00:28:21.703Z,99025.54
2018-10-11T00:30:50.897Z,99019.64
2018-10-11T00:33:20.060Z,99028.67
2018-10-11T00:35:48.676Z,99047.41
2018-10-11T00:38:17.212Z,99042.23
2018-10-11T00:40:45.720Z,99034.38
2018-10-11T00:43:14.257Z,99030.29
2018-10-11T00:45:42.777Z,99023.43
2018-10-11T00:48:11.313Z,99022.89
2018-10-11T00:50:39.816Z,99018.90
2018-10-11T00:53:08.361Z,99009.23
2018-10-11T00:55:36.928Z,99011.13
2018-10-11T00:58:05.801Z,99016.60
2018-10-11T01:00:34.317Z,99026.60
2018-10-11T01:03:02.861Z,99020.73
2018-10-11T01:05:31.367Z,99022.49
2018-10-11T01:07:59.912Z,99018.73
2018-10-11T01:10:28.413Z,99015.20
2018-10-11T01:12:56.955Z,99016.20
2018-10-11T01:15:25.481Z,99025.84
2018-10-11T01:17:54.753Z,99020.90
2018-10-11T01:20:23.325Z,99017.77
2018-10-11T01:22:51.916Z,99015.57
2018-10-11T01:25:20.625Z,99010.37
2018-10-11T01:27:49.501Z,99011.00
2018-10-11T01:30:18.160Z,99010.97
2018-10-11T01:32:46.705Z,99016.93
2018-10-11T01:35:15.217Z,99018.34
2018-10-11T01:37:43.765Z,99011.64
2018-10-11T01:40:12.304Z,99005.33
2018-10-11T01:42:40.840Z,98995.56
2018-10-11T01:45:10.048Z,98993.81
2018-10-11T01:47:39.265Z,98985.36
2018-10-11T01:50:07.808Z,98980.67
2018-10-11T01:52:36.377Z,98986.52
2018-10-11T01:55:04.941Z,98993.02
2018-10-11T01:57:33.470Z,98997.76
2018-10-11T02:00:02.010Z,99014.03
2018-10-11T02:02:30.596Z,99021.80
2018-10-11T02:04:59.138Z,99012.00
2018-10-11T02:07:27.667Z,99009.53
2018-10-11T02:09:56.201Z,98995.87
2018-10-11T02:12:25.596Z,98999.61
2018-10-11T02:14:54.199Z,98999.64
2018-10-11T02:17:22.705Z,98986.18
2018-10-11T02:19:51.252Z,98990.17
2018-10-11T02:22:19.769Z,98986.37
2018-10-11T02:24:48.320Z,98993.19
2018-10-11T02:27:16.862Z,98985.80
2018-10-11T02:29:45.465Z,98990.72
2018-10-11T02:32:14.272Z,98982.92
2018-10-11T02:34:42.824Z,98984.04
2018-10-11T02:37:11.438Z,98988.16
2018-10-11T02:39:40.025Z,98985.93
2018-10-11T02:42:08.540Z,98993.70
2018-10-11T02:44:37.085Z,98991.73
2018-10-11T02:47:05.609Z,98996.70
2018-10-11T02:49:34.152Z,98996.33
2018-10-11T02:52:02.656Z,98987.68
2018-10-11T02:54:31.234Z,98987.20
2018-10-11T02:57:03.709Z,98977.72
2018-10-11T02:59:35.897Z,98978.50
2018-10-11T03:02:07.905Z,98972.55
2018-10-11T03:04:37.149Z,98973.67
2018-10-11T03:07:07.775Z,98974.99
2018-10-11T03:09:36.330Z,98967.73
2018-10-11T03:12:04.874Z,98977.13
2018-10-11T03:14:33.442Z,98983.80
2018-10-11T03:17:01.948Z,98975.30
2018-10-11T03:19:30.501Z,98969.03
2018-10-11T03:21:59.260Z,98959.54
2018-10-11T03:24:27.816Z,98954.59
2018-10-11T03:26:58.668Z,98957.97
2018-10-11T03:29:27.705Z,98968.27
2018-10-11T03:31:56.450Z,98978.55
2018-10-11T03:34:25.681Z,98987.09
2018-10-11T03:36:54.202Z,98993.70
2018-10-11T03:39:22.758Z,98999.67
2018-10-11T03:41:51.305Z,99001.64
2018-10-11T03:44:19.864Z,99018.39
2018-10-11T03:46:48.392Z,99015.80
2018-10-11T03:49:16.917Z,99025.14
2018-10-11T03:51:45.485Z,99037.30
2018-10-11T03:54:14.009Z,99043.11
2018-10-11T03:56:42.573Z,99044.12
2018-10-11T03:59:11.172Z,99047.01
2018-10-11T04:01:39.736Z,99044.59
2018-10-11T04:04:08.281Z,99042.18
2018-10-11T04:06:36.845Z,99046.00
2018-10-11T04:09:06.721Z,99057.71
2018-10-11T04:11:35.932Z,99070.34
2018-10-11T04:14:04.466Z,99070.61
2018-10-11T04:16:33.025Z,99072.13
2018-10-11T04:19:01.548Z,99072.14
2018-10-11T04:21:30.140Z,99070.72
2018-10-11T04:23:58.666Z,99061.82
2018-10-11T04:26:27.224Z,99061.53
2018-10-11T04:28:55.741Z,99064.64
2018-10-11T04:31:24.300Z,99058.48
2018-10-11T04:33:52.817Z,99060.33
2018-10-11T04:36:21.373Z,99066.41
2018-10-11T04:38:49.997Z,99077.24
2018-10-11T04:41:18.541Z,99078.55
2018-10-11T04:43:47.053Z,99088.79
2018-10-11T04:46:15.648Z,99088.46
2018-10-11T04:48:44.169Z,99079.03
2018-10-11T04:51:12.730Z,99069.08
2018-10-11T04:53:41.320Z,99076.23
2018-10-11T04:56:09.873Z,99076.32
2018-10-11T04:58:38.461Z,99070.81
2018-10-11T05:01:07.128Z,99076.23
2018-10-11T05:03:35.644Z,99072.95
2018-10-11T05:06:04.345Z,99071.08
2018-10-11T05:08:32.856Z,99066.11
2018-10-11T05:11:01.753Z,99070.70
2018-10-11T05:13:38.857Z,99072.66
2018-10-11T05:16:07.436Z,99075.80
2018-10-11T05:18:36.753Z,99087.63
2018-10-11T05:21:05.364Z,99080.99
2018-10-11T05:23:33.884Z,99083.48
2018-10-11T05:26:02.445Z,99079.42
2018-10-11T05:28:30.956Z,99086.72
2018-10-11T05:30:59.496Z,99089.00
2018-10-11T05:33:28.605Z,99101.69
2018-10-11T05:35:57.149Z,99107.42
2018-10-11T05:38:25.904Z,99099.08
2018-10-11T05:40:55.936Z,99109.02
2018-10-11T05:43:24.579Z,99096.85
2018-10-11T05:45:56.608Z,99102.55
2018-10-11T05:48:26.469Z,99107.96
2018-10-11T05:50:55.235Z,99102.06
2018-10-11T05:53:24.109Z,99102.13
2018-10-11T05:55:52.820Z,99106.74
2018-10-11T05:58:21.744Z,99101.57
2018-10-11T06:00:50.308Z,99103.47
2018-10-11T06:03:19.090Z,99091.20
2018-10-11T06:05:47.613Z,99091.27
2018-10-11T06:08:16.168Z,99099.14
2018-10-11T06:10:45.262Z,99098.92
2018-10-11T06:13:14.102Z,99101.33
2018-10-11T06:15:42.868Z,99112.48
2018-10-11T06:18:12.124Z,99122.08
2018-10-11T06:20:40.941Z,99146.23
2018-10-11T06:23:09.511Z,99149.50
2018-10-11T06:25:38.795Z,99148.58
2018-10-11T06:28:07.754Z,99134.47
2018-10-11T06:30:36.614Z,99115.95
2018-10-11T06:33:05.188Z,99116.05
2018-10-11T06:35:34.016Z,99120.22
2018-10-11T06:38:03.393Z,99145.59
2018-10-11T06:40:32.549Z,99144.09
2018-10-11T06:43:01.120Z,99157.31
2018-10-11T06:45:32.444Z,99154.42
2018-10-11T06:48:03.681Z,99163.77
2018-10-11T06:50:32.356Z,99157.42
2018-10-11T06:53:01.448Z,99141.75
2018-10-11T06:55:29.980Z,99138.84
2018-10-11T06:57:58.549Z,99131.80
2018-10-11T07:00:27.148Z,99133.47
2018-10-11T07:02:55.772Z,99138.23
2018-10-11T07:05:24.300Z,99142.33
2018-10-11T07:07:52.882Z,99144.38
2018-10-11T07:10:21.487Z,99146.13
2018-10-11T07:12:50.057Z,99146.28
2018-10-11T07:15:18.609Z,99144.59
2018-10-11T07:17:47.178Z,99143.61
2018-10-11T07:20:15.688Z,99143.67
2018-10-11T07:22:44.276Z,99143.55
2018-10-11T07:25:12.887Z,99146.08
2018-10-11T07:27:41.637Z,99151.44
2018-10-11T07:30:10.328Z,99155.89
2018-10-11T07:32:38.901Z,99154.98
2018-10-11T07:35:07.465Z,99160.53
2018-10-11T07:37:36.264Z,99159.30
2018-10-11T07:40:04.917Z,99164.25
2018-10-11T07:42:41.926Z,99170.22
2018-10-11T07:45:13.010Z,99172.06
2018-10-11T07:47:49.411Z,99167.56
2018-10-11T07:50:19.135Z,99172.84
2018-10-11T07:52:51.015Z,99165.70
2018-10-11T07:55:19.717Z,99168.47
2018-10-11T07:57:48.272Z,99171.00
2018-10-11T08:00:16.896Z,99166.16
2018-10-11T08:02:46.184Z,99176.02
2018-10-11T08:05:14.734Z,99167.26
2018-10-11T08:07:43.338Z,99161.06
2018-10-11T08:10:12.173Z,99174.61
2018-10-11T08:12:40.693Z,99182.64
2018-10-11T08:15:09.352Z,99182.72
2018-10-11T08:17:38.242Z,99182.88
2018-10-11T08:20:11.856Z,99182.02
2018-10-11T08:22:40.973Z,99170.53
2018-10-11T08:25:09.707Z,99178.04
2018-10-11T08:27:38.379Z,99180.65
2018-10-11T08:30:13.707Z,99179.38
2018-10-11T08:32:42.545Z,99171.12
2018-10-11T08:35:11.532Z,99172.82
2018-10-11T08:37:40.194Z,99175.02
2018-10-11T08:40:08.768Z,99168.02
2018-10-11T08:42:45.405Z,99154.52
2018-10-11T08:45:14.037Z,99145.97
2018-10-11T08:47:42.632Z,99165.40
2018-10-11T08:50:11.239Z,99157.61
2018-10-11T08:52:39.805Z,99168.77
2018-10-11T08:55:08.485Z,99161.69
2018-10-11T08:57:37.292Z,99176.45
2018-10-11T09:00:07.495Z,99172.86
2018-10-11T09:02:36.084Z,99175.03
2018-10-11T09:05:04.852Z,99173.10
2018-10-11T09:07:38.982Z,99173.52
2018-10-11T09:10:07.841Z,99183.66
2018-10-11T09:12:36.384Z,99195.88
2018-10-11T09:15:05.033Z,99199.74
2018-10-11T09:17:33.560Z,99198.86
2018-10-11T09:20:02.150Z,99200.67
2018-10-11T09:22:30.719Z,99200.00
2018-10-11T09:24:59.312Z,99197.70
2018-10-11T09:27:27.837Z,99199.63
2018-10-11T09:29:56.425Z,99201.34
2018-10-11T09:32:24.967Z,99198.06
2018-10-11T09:34:53.536Z,99199.19
2018-10-11T09:37:22.068Z,99201.45
2018-10-11T09:39:50.653Z,99207.34
2018-10-11T09:42:19.196Z,99206.38
2018-10-11T09:44:48.316Z,99202.03
2018-10-11T09:47:18.456Z,99210.64
2018-10-11T09:49:49.058Z,99207.36
2018-10-11T09:52:18.575Z,99213.59
2018-10-11T09:54:47.164Z,99211.39
2018-10-11T09:57:36.429Z,99218.14
2018-10-11T10:00:11.797Z,99213.20
2018-10-11T10:02:40.368Z,99209.23
2018-10-11T10:05:09.325Z,99211.73
2018-10-11T10:07:37.912Z,99204.80
2018-10-11T10:10:06.962Z,99216.09
2018-10-11T10:12:37.040Z,99221.14
2018-10-11T10:15:06.628Z,99204.78
2018-10-11T10:17:37.036Z,99203.26
2018-10-11T10:20:07.060Z,99195.23
2018-10-11T10:22:35.672Z,99193.73
2018-10-11T10:25:04.384Z,99198.50
2018-10-11T10:27:33.472Z,99187.50
2018-10-11T10:30:06.029Z,99189.75
2018-10-11T10:32:34.574Z,99187.56
2018-10-11T10:35:03.169Z,99179.97
2018-10-11T10:37:31.696Z,99176.92
2018-10-11T10:40:00.463Z,99174.81
2018-10-11T10:42:31.153Z,99172.83
2018-10-11T10:44:59.893Z,99172.63
2018-10-11T10:47:28.545Z,99167.11
2018-10-11T10:49:57.097Z,99167.47
2018-10-11T10:52:25.832Z,99168.94
2018-10-11T10:54:54.381Z,99167.67
2018-10-11T10:57:23.018Z,99157.95
2018-10-11T10:59:51.573Z,99157.23
2018-10-11T11:02:20.137Z,99150.22
2018-10-11T11:04:55.037Z,99141.39
2018-10-11T11:07:23.673Z,99140.98
2018-10-11T11:09:52.213Z,99133.77
2018-10-11T11:12:20.769Z,99130.38
2018-10-11T11:14:49.365Z,99128.04
2018-10-11T11:17:18.080Z,99126.23
2018-10-11T11:19:46.620Z,99121.11
2018-10-11T11:22:15.169Z,99115.37
2018-10-11T11:24:47.965Z,99103.55
2018-10-11T11:27:23.741Z,99090.80
2018-10-11T11:29:56.599Z,99080.48
2018-10-11T11:32:27.296Z,99080.84
2018-10-11T11:34:57.504Z,99075.94
2018-10-11T11:37:27.465Z,99073.38
2018-10-11T11:40:00.348Z,99067.86
2018-10-11T11:42:31.713Z,99066.27
2018-10-11T11:45:00.442Z,99072.88
2018-10-11T11:47:33.747Z,99071.09
2018-10-11T11:50:05.224Z,99068.42
2018-10-11T11:52:38.939Z,99073.84
2018-10-11T11:55:09.718Z,99072.28
2018-10-11T11:57:43.488Z,99070.80
2018-10-11T12:00:15.046Z,99069.69
2018-10-11T12:02:44.452Z,99071.75
2018-10-11T12:05:16.788Z,99072.58
2018-10-11T12:07:45.885Z,99071.48
2018-10-11T12:10:14.460Z,99071.17
2018-10-11T12:13:05.523Z,99073.72
2018-10-11T12:15:38.515Z,99077.90
2018-10-11T12:18:09.639Z,99071.23
2018-10-11T12:20:41.662Z,99077.23
2018-10-11T12:23:14.511Z,99081.23
2018-10-11T12:25:44.500Z,99076.75
2018-10-11T12:28:15.201Z,99078.92
2018-10-11T12:30:48.717Z,99085.59
2018-10-11T12:33:18.853Z,99086.25
2018-10-11T12:35:47.458Z,99090.59
2018-10-11T12:38:16.902Z,99091.27
2018-10-11T12:40:46.176Z,99084.10
2018-10-11T12:43:14.768Z,99087.77
2018-10-11T12:45:44.685Z,99080.26
2018-10-11T12:48:16.413Z,99080.59
2018-10-11T12:50:46.514Z,99081.42
2018-10-11T12:53:18.596Z,99082.59
2018-10-11T12:55:48.086Z,99088.58
2018-10-11T12:58:23.084Z,99088.72
2018-10-11T13:00:56.177Z,99090.20
2018-10-11T13:03:28.325Z,99092.21
2018-10-11T13:05:56.842Z,99099.70
2018-10-11T13:08:33.192Z,99098.66
2018-10-11T13:11:07.342Z,99099.77
2018-10-11T13:13:47.861Z,99109.98
2018-10-11T13:16:18.197Z,99107.31
2018-10-11T13:18:52.930Z,99110.83
2018-10-11T13:21:35.607Z,99110.78
2018-10-11T13:24:09.520Z,99108.07
2018-10-11T13:26:39.718Z,99114.34
2018-10-11T13:29:23.952Z,99103.38
2018-10-11T13:31:53.420Z,99107.14
2018-10-11T13:34:27.525Z,99101.14
2018-10-11T13:36:59.244Z,99096.11
2018-10-11T13:39:31.837Z,99095.05
2018-10-11T13:42:05.720Z,99091.34
2018-10-11T13:44:40.428Z,99092.81
2018-10-11T13:47:13.030Z,99092.03
2018-10-11T13:49:44.246Z,99093.45
2018-10-11T13:52:22.513Z,99092.30
2018-10-11T13:54:53.125Z,99097.73
2018-10-11T13:57:26.846Z,99093.31
2018-10-11T13:59:55.521Z,99092.88
2018-10-11T14:02:25.905Z,99082.27
2018-10-11T14:05:01.854Z,99083.30
2018-10-11T14:07:30.564Z,99078.36
2018-10-11T14:09:59.100Z,99077.56
2018-10-11T14:12:27.618Z,99082.89
2018-10-11T14:14:56.184Z,99081.89
2018-10-11T14:17:24.689Z,99083.70
2018-10-11T14:19:53.250Z,99082.84
2018-10-11T14:22:21.755Z,99084.10
2018-10-11T14:24:50.306Z,99081.95
2018-10-11T14:27:18.800Z,99074.32
2018-10-11T14:29:47.333Z,99068.96
2018-10-11T14:32:15.844Z,99075.17
2018-10-11T14:34:44.425Z,99067.56
2018-10-11T14:37:13.157Z,99064.55
2018-10-11T14:39:41.549Z,99060.39
2018-10-11T14:42:10.271Z,99059.12
2018-10-11T14:44:40.868Z,99058.00
2018-10-11T14:47:09.389Z,99055.83
2018-10-11T14:49:39.922Z,99057.33
2018-10-11T14:52:08.620Z,99050.73
2018-10-11T14:54:37.183Z,99057.17
2018-10-11T14:57:08.374Z,99059.53
2018-10-11T14:59:36.975Z,99059.75
2018-10-11T15:02:05.436Z,99061.28
2018-10-11T15:04:33.980Z,99062.61
2018-10-11T15:07:06.135Z,99065.54
2018-10-11T15:09:34.736Z,99065.84
2018-10-11T15:12:03.278Z,99067.38
2018-10-11T15:14:31.872Z,99065.25
2018-10-11T15:17:00.903Z,99066.98
2018-10-11T15:19:29.457Z,99071.41
2018-10-11T15:21:58.526Z,99069.63
2018-10-11T15:24:27.085Z,99072.56
2018-10-11T15:26:56.636Z,99067.00
2018-10-11T15:29:25.267Z,99073.89
2018-10-11T15:31:53.763Z,99077.25
2018-10-11T15:34:22.735Z,99078.36
2018-10-11T15:36:51.396Z,99077.31
2018-10-11T15:39:20.301Z,99074.00
2018-10-11T15:41:49.709Z,99082.05
2018-10-11T15:44:18.393Z,99080.19
2018-10-11T15:46:47.255Z,99083.06
2018-10-11T15:49:22.553Z,99090.05
2018-10-11T15:51:51.372Z,99088.22
2018-10-11T15:54:20.172Z,99085.11
2018-10-11T15:56:50.840Z,99092.11
2018-10-11T15:59:19.743Z,99089.22
2018-10-11T16:01:48.454Z,99091.83
2018-10-11T16:04:17.197Z,99091.80
2018-10-11T16:06:46.733Z,99093.02
2018-10-11T16:09:16.939Z,99093.89
2018-10-11T16:11:46.825Z,99098.94
2018-10-11T16:14:15.504Z,99090.86
2018-10-11T16:16:44.200Z,99100.39
2018-10-11T16:19:12.790Z,99098.16
2018-10-11T16:21:42.026Z,99110.78
2018-10-11T16:24:11.029Z,99104.73
2018-10-11T16:26:39.618Z,99101.25
2018-10-11T16:29:08.436Z,99101.60
2018-10-11T16:31:36.982Z,99099.45
2018-10-11T16:34:05.626Z,99097.73
2018-10-11T16:36:37.162Z,99093.49
2018-10-11T16:39:08.093Z,99093.13
2018-10-11T16:41:36.753Z,99101.59
2018-10-11T16:44:05.277Z,99098.45
2018-10-11T16:46:34.356Z,99105.80
2018-10-11T16:49:02.888Z,99104.20
2018-10-11T16:51:31.548Z,99110.36
2018-10-11T16:54:00.324Z,99108.45
2018-10-11T16:56:28.920Z,99112.71
2018-10-11T16:58:57.709Z,99111.33
2018-10-11T17:01:26.221Z,99113.77
2018-10-11T17:03:54.752Z,99113.41
2018-10-11T17:06:25.717Z,99105.56
2018-10-11T17:08:54.217Z,99112.14
2018-10-11T17:11:22.772Z,99118.48
2018-10-11T17:13:51.301Z,99125.50
2018-10-11T17:16:20.001Z,99129.84
2018-10-11T17:18:48.567Z,99135.43
2018-10-11T17:21:17.092Z,99135.28
2018-10-11T17:23:45.601Z,99134.95
2018-10-11T17:26:14.142Z,99146.42
2018-10-11T17:28:42.651Z,99149.84
2018-10-11T17:31:11.189Z,99144.12
2018-10-11T17:33:39.687Z,99148.66
2018-10-11T17:36:08.224Z,99147.16
2018-10-11T17:38:42.732Z,99146.44
2018-10-11T17:41:11.517Z,99147.30
2018-10-11T17:43:43.618Z,99144.42
2018-10-11T17:46:12.204Z,99147.59
2018-10-11T17:48:40.710Z,99146.67
2018-10-11T17:51:09.265Z,99147.89
2018-10-11T17:53:37.769Z,99151.46
2018-10-11T17:56:06.302Z,99158.49
2018-10-11T17:58:34.860Z,99163.99
2018-10-11T18:01:03.380Z,99155.78
2018-10-11T18:03:31.934Z,99167.95
2018-10-11T18:06:00.746Z,99163.96
2018-10-11T18:08:29.297Z,99164.88
2018-10-11T18:10:57.798Z,99174.31
2018-10-11T18:13:26.341Z,99173.27
2018-10-11T18:15:54.966Z,99172.25
2018-10-11T18:18:23.508Z,99180.00
2018-10-11T18:20:52.013Z,99183.62
2018-10-11T18:23:20.542Z,99182.88
2018-10-11T18:25:49.053Z,99182.87
2018-10-11T18:28:17.594Z,99187.20
2018-10-11T18:30:46.101Z,99196.72
2018-10-11T18:33:14.640Z,99205.22
2018-10-11T18:35:43.218Z,99194.88
2018-10-11T18:38:12.017Z,99196.22
2018-10-11T18:40:40.542Z,99197.78
2018-10-11T18:43:10.585Z,99204.73
2018-10-11T18:45:39.148Z,99205.31
2018-10-11T18:48:13.940Z,99197.11
2018-10-11T18:50:47.609Z,99202.43
2018-10-11T18:53:19.792Z,99207.64
2018-10-11T18:55:51.271Z,99203.94
2018-10-11T18:58:20.993Z,99205.95
2018-10-11T19:00:50.825Z,99206.58
2018-10-11T19:03:20.621Z,99205.36
2018-10-11T19:05:50.699Z,99210.73
2018-10-11T19:08:20.565Z,99218.09
2018-10-11T19:10:51.909Z,99224.11
2018-10-11T19:13:21.720Z,99226.22
2018-10-11T19:15:51.778Z,99227.42
2018-10-11T19:18:21.493Z,99236.23
2018-10-11T19:20:51.604Z,99229.16
2018-10-11T19:23:27.235Z,99232.27
2018-10-11T19:25:57.733Z,99241.91
2018-10-11T19:28:31.467Z,99237.91
2018-10-11T19:31:00.851Z,99231.98
2018-10-11T19:33:30.816Z,99234.02
2018-10-11T19:36:09.725Z,99235.61
2018-10-11T19:38:44.335Z,99234.20
2018-10-11T19:41:18.987Z,99231.58
2018-10-11T19:43:49.617Z,99234.11
2018-10-11T19:46:20.197Z,99233.99
2018-10-11T19:48:49.864Z,99234.70
2018-10-11T19:51:21.124Z,99240.31
2018-10-11T19:53:55.483Z,99239.34
2018-10-11T19:56:25.407Z,99240.77
2018-10-11T19:58:57.472Z,99245.35
2018-10-11T20:01:31.022Z,99242.32
2018-10-11T20:04:07.153Z,99248.42
2018-10-11T20:06:38.037Z,99256.47
2018-10-11T20:09:10.613Z,99258.21
2018-10-11T20:11:42.238Z,99260.45
2018-10-11T20:14:13.357Z,99273.94
2018-10-11T20:16:41.882Z,99269.78
2018-10-11T20:19:10.578Z,99276.77
2018-10-11T20:21:39.811Z,99277.18
2018-10-11T20:24:12.969Z,99274.55
2018-10-11T20:26:49.062Z,99282.06
2018-10-11T20:29:19.333Z,99290.05
2018-10-11T20:31:49.487Z,99290.62
2018-10-11T20:34:23.424Z,99298.55
2018-10-11T20:36:56.881Z,99292.31
2018-10-11T20:39:25.501Z,99296.34
2018-10-11T20:41:55.648Z,99304.97
2018-10-11T20:44:24.271Z,99291.07
2018-10-11T20:46:53.436Z,99296.12
2018-10-11T20:49:22.291Z,99299.09
2018-10-11T20:51:53.243Z,99300.99
2018-10-11T20:54:22.157Z,99293.61
2018-10-11T20:56:52.355Z,99298.47
2018-10-11T20:59:21.637Z,99293.73
2018-10-11T21:01:54.622Z,99291.08
2018-10-11T21:04:24.230Z,99294.95
2018-10-11T21:06:53.202Z,99298.04
2018-10-11T21:09:27.704Z,99300.72
2018-10-11T21:12:00.213Z,99295.86
2018-10-11T21:14:30.029Z,99306.94
2018-10-11T21:16:59.726Z,99313.56
2018-10-11T21:19:29.041Z,99304.80
2018-10-11T21:21:57.684Z,99307.43
2018-10-11T21:24:27.441Z,99305.98
2018-10-11T21:27:01.728Z,99311.66
2018-10-11T21:29:30.500Z,99311.45
2018-10-11T21:32:00.068Z,99315.67
2018-10-11T21:34:29.798Z,99328.27
2018-10-11T21:36:59.207Z,99319.90
2018-10-11T21:39:28.204Z,99318.27
2018-10-11T21:41:56.955Z,99311.48
2018-10-11T21:44:27.158Z,99310.72
2018-10-11T21:46:57.129Z,99307.71
2018-10-11T21:49:26.177Z,99308.99
2018-10-11T21:51:54.702Z,99317.85
2018-10-11T21:54:25.239Z,99316.16
2018-10-11T21:56:55.909Z,99318.33
2018-10-11T21:59:24.864Z,99320.28
2018-10-11T22:01:54.529Z,99318.78
2018-10-11T22:04:24.239Z,99324.41
2018-10-11T22:06:53.900Z,99326.58
2018-10-11T22:09:23.257Z,99327.90
2018-10-11T22:11:52.067Z,99328.45
2018-10-11T22:14:21.679Z,99316.20
2018-10-11T22:16:51.676Z,99325.56
2018-10-11T22:19:20.356Z,99343.88
2018-10-11T22:21:49.493Z,99347.52
2018-10-11T22:24:18.605Z,99349.42
2018-10-11T22:26:47.547Z,99344.87
2018-10-11T22:29:17.343Z,99349.81
2018-10-11T22:31:46.596Z,99359.06
2018-10-11T22:34:15.156Z,99359.36
2018-10-11T22:36:44.188Z,99355.80
2018-10-11T22:39:13.660Z,99367.83
2018-10-11T22:41:42.704Z,99367.45
2018-10-11T22:44:12.698Z,99377.09
2018-10-11T22:46:42.780Z,99374.59
2018-10-11T22:49:11.561Z,99380.31
2018-10-11T22:51:40.749Z,99377.48
2018-10-11T22:54:11.769Z,99370.71
2018-10-11T22:56:40.424Z,99378.73
2018-10-11T22:59:09.600Z,99387.77
2018-10-11T23:01:38.817Z,99394.02
2018-10-11T23:04:08.293Z,99402.11
2018-10-11T23:06:37.766Z,99407.49
2018-10-11T23:09:09.324Z,99406.22
2018-10-11T23:11:39.729Z,99399.66
2018-10-11T23:14:09.516Z,99390.59
2018-10-11T23:16:38.055Z,99401.11
2018-10-11T23:19:06.613Z,99391.87
2018-10-11T23:21:35.156Z,99373.25
2018-10-11T23:24:03.692Z,99398.74
2018-10-11T23:26:32.244Z,99400.41
2018-10-11T23:29:00.748Z,99411.34
2018-10-11T23:31:29.288Z,99407.49
2018-10-11T23:33:57.787Z,99409.85
2018-10-11T23:36:26.344Z,99413.55
2018-10-11T23:38:54.868Z,99402.39
2018-10-11T23:41:23.409Z,99406.72
2018-10-11T23:43:51.920Z,99404.03
2018-10-11T23:46:20.480Z,99406.02
2018-10-11T23:48:48.988Z,99407.06
2018-10-11T23:51:17.517Z,99411.59
2018-10-11T23:53:46.042Z,99422.55
2018-10-11T23:56:14.921Z,99422.11
2018-10-11T23:58:43.433Z,99424.20
